METAR AND TAF INFORMATION
METAR FOR LDSP
ADDS - METARS form results

(0057 UTC 23 May 2018)
Data provider http://aviationweather.gov/adds/metars/
 
METAR text: LDSP 230030Z AUTO 34005KT CAVOK 20/13 Q1014
Conditions at: LDSP (SPLIT/KASTEL STA, HR) observed 0030 UTC 23 May 2018
Temperature: 20.0°C (68°F)
Dewpoint: 13.0°C (55°F) [RH = 64%]
Pressure (altimeter): 29.94 inches Hg (1014.0 mb)
Winds: from the NNW (340 degrees) at 6 MPH (5 knots; 2.6 m/s)
Visibility: 6 or more miles (10+ km)
Ceiling: ceiling and visibility are OK
Clouds: unknown
Weather: no significant weather observed at this time

METAR text: LDSP 230000Z AUTO 00000KT CAVOK 19/15 Q1014
Conditions at: LDSP (SPLIT/KASTEL STA, HR) observed 0000 UTC 23 May 2018
Temperature: 19.0°C (66°F)
Dewpoint: 15.0°C (59°F) [RH = 78%]
Pressure (altimeter): 29.94 inches Hg (1014.0 mb)
Winds: calm
Visibility: 6 or more miles (10+ km)
Ceiling: ceiling and visibility are OK
Clouds: unknown
Weather: no significant weather observed at this time

Forecast for: LDSP (SPLIT/KASTEL STA, HR)
Text: TAF LDSP 222325Z 2300/2400 11006KT 9999 SCT040 TX24/2311Z TN19/2301Z
Forecast period: 0000 UTC 23 May 2018 to 0000 UTC 24 May 2018
Forecast type: FROM: standard forecast or significant change
Winds: from the ESE (110 degrees) at 7 MPH (6 knots; 3.1 m/s)
Visibility: 6 or more miles (10+ km)
Clouds: scattered clouds at 4000 feet AGL
Weather: no significant weather forecast for this period
Forecast for: LDSP (SPLIT/KASTEL STA, HR)
Text: TAF LDSP 222325Z 2300/2400 11006KT 9999 SCT040 TX24/2311Z TN19/2301Z
Forecast period: 0000 UTC 23 May 2018 to 0000 UTC 24 May 2018
Forecast type: FROM: standard forecast or significant change
Winds: from the ESE (110 degrees) at 7 MPH (6 knots; 3.1 m/s)
Visibility: 6 or more miles (10+ km)
Clouds: scattered clouds at 4000 feet AGL
Weather: no significant weather forecast for this period
Forecast for: LDSP (SPLIT/KASTEL STA, HR)
Text: TAF LDSP 222325Z 2300/2400 11006KT 9999 SCT040 TX24/2311Z TN19/2301Z
Forecast period: 0200 to 1200 UTC 23 May 2018
Forecast type: TEMPORARY: The following changes expected for less than half the time period
Winds: variable direction winds at 12 MPH (10 knots; 5.2 m/s)
Ceiling: 4500 feet AGL
Clouds: few clouds at 4000 feet AGL
broken clouds at 4500 feet AGL
Weather: -TSRA  (light rain associated with thunderstorm(s))
Forecast for: LDSP (SPLIT/KASTEL STA, HR)
Text: TAF LDSP 222325Z 2300/2400 11006KT 9999 SCT040 TX24/2311Z TN19/2301Z
Forecast period: 0200 to 1200 UTC 23 May 2018
Forecast type: TEMPORARY: The following changes expected for less than half the time period
Winds: variable direction winds at 12 MPH (10 knots; 5.2 m/s)
Ceiling: 4500 feet AGL
Clouds: few clouds at 4000 feet AGL
broken clouds at 4500 feet AGL
Weather: -TSRA  (light rain associated with thunderstorm(s))
Forecast for: LDSP (SPLIT/KASTEL STA, HR)
Text: TAF LDSP 222325Z 2300/2400 11006KT 9999 SCT040 TX24/2311Z TN19/2301Z
Forecast period: 0700 to 1100 UTC 23 May 2018
Forecast type: TEMPORARY: The following changes expected for less than half the time period
Winds: from the E (100 degrees) at 14 MPH (12 knots; 6.2 m/s)
Weather: no significant weather forecast for this period
Forecast for: LDSP (SPLIT/KASTEL STA, HR)
Text: TAF LDSP 222325Z 2300/2400 11006KT 9999 SCT040 TX24/2311Z TN19/2301Z
Forecast period: 0700 to 1100 UTC 23 May 2018
Forecast type: TEMPORARY: The following changes expected for less than half the time period
Winds: from the E (100 degrees) at 14 MPH (12 knots; 6.2 m/s)
Weather: no significant weather forecast for this period
Forecast for: LDSP (SPLIT/KASTEL STA, HR)
Text: TAF LDSP 222325Z 2300/2400 11006KT 9999 SCT040 TX24/2311Z TN19/2301Z
Forecast period: 1200 to 2100 UTC 23 May 2018
Forecast type: TEMPORARY: The following changes expected for less than half the time period
Winds: variable direction winds at 14 MPH (12 knots; 6.2 m/s)
gusting to 25 MPH (22 knots; 11.4 m/s)
Visibility: 2.49 miles (4.01 km)
Ceiling: 3500 feet AGL
Clouds: scattered clouds at 3000 feet AGL
few clouds at 3300 feet AGL
broken clouds at 3500 feet AGL
Weather: TSRA  (rain associated with thunderstorm(s))
Forecast for: LDSP (SPLIT/KASTEL STA, HR)
Text: TAF LDSP 222325Z 2300/2400 11006KT 9999 SCT040 TX24/2311Z TN19/2301Z
Forecast period: 1200 to 2100 UTC 23 May 2018
Forecast type: TEMPORARY: The following changes expected for less than half the time period
Winds: variable direction winds at 14 MPH (12 knots; 6.2 m/s)
gusting to 25 MPH (22 knots; 11.4 m/s)
Visibility: 2.49 miles (4.01 km)
Ceiling: 3500 feet AGL
Clouds: scattered clouds at 3000 feet AGL
few clouds at 3300 feet AGL
broken clouds at 3500 feet AGL
Weather: TSRA  (rain associated with thunderstorm(s))

 AIRPORT MAP

 RUNWAY INFORMATION
Runway 05 Runway length 8366 ft Runway width 148 ft
Runway elevation 70 ft Runway displaced threshold 0 ft Runway heading 53
Runway 23 Runway length 8366 ft Runway width 148 ft
Runway elevation 50 ft Runway displaced threshold 525 ft Runway heading 233

 AIRPORT FREQUENCIES
Type APP Name APP Frequency 120.875 MHZ
Type INFO Name INFO Frequency 128.675 MHZ
Type TWR Name TWR Frequency 124.675 MHZ

 AIRPORT NEAR NAVIGATION AIDS
Type NDB Name Drvenik Frequency 418 KHZ
Type VOR-DME Name Split Frequency 115700 KHZ
Type NDB Name Trogir Frequency 378 KHZ



Powered by Virtual Airlines Manager [v2.6.1]